Time,TemperatureF,DewpointF,PressureIn,WindDirection,WindDirectionDegrees,WindSpeedMPH,WindSpeedGustMPH,Humidity,HourlyPrecipIn,Conditions,Clouds,dailyrainin,SoftwareType,DateUTC
2013-01-20 00:00:00,61.7,58.7,30.17,NNW,335,0.0,10.0,90,0.00,,OVC065,0.00,VWS V14.01,2013-01-20 05:00:00,
2013-01-20 00:03:00,61.6,58.6,30.17,NNW,339,4.0,6.0,90,0.00,,OVC060,0.00,VWS V14.01,2013-01-20 05:03:00,
2013-01-20 00:08:00,61.7,58.7,30.17,NNW,331,0.0,4.0,90,0.00,,OVC060,0.00,VWS V14.01,2013-01-20 05:08:00,
2013-01-20 00:13:00,61.6,58.6,30.17,NNW,329,6.0,8.0,90,0.00,,OVC060,0.00,VWS V14.01,2013-01-20 05:13:00,
2013-01-20 00:18:00,61.6,58.6,30.17,NE,34,6.0,6.0,90,0.00,,OVC060,0.00,VWS V14.01,2013-01-20 05:18:00,
2013-01-20 00:23:00,61.5,58.5,30.17,North,350,4.0,6.0,90,0.00,,OVC060,0.00,VWS V14.01,2013-01-20 05:23:00,
2013-01-20 00:28:00,61.5,58.5,30.17,NNW,340,2.0,6.0,90,0.00,,OVC060,0.00,VWS V14.01,2013-01-20 05:28:00,
2013-01-20 00:33:00,61.5,58.5,30.16,North,355,2.0,10.0,90,0.00,,OVC060,0.00,VWS V14.01,2013-01-20 05:33:00,
2013-01-20 00:38:00,61.4,58.5,30.16,NNW,336,0.0,6.0,90,0.00,,OVC060,0.00,VWS V14.01,2013-01-20 05:38:00,
2013-01-20 00:44:00,61.4,58.5,30.17,NNW,337,0.0,8.0,90,0.00,,OVC060,0.00,VWS V14.01,2013-01-20 05:44:00,
2013-01-20 00:49:00,61.4,58.5,30.17,NNW,338,0.0,4.0,90,0.00,,OVC060,0.00,VWS V14.01,2013-01-20 05:49:00,
2013-01-20 00:54:00,61.4,58.8,30.17,NW,323,4.0,8.0,91,0.00,,OVC060,0.00,VWS V14.01,2013-01-20 05:54:00,
2013-01-20 00:59:00,61.3,58.7,30.16,North,3,4.0,6.0,91,0.00,,OVC060,0.00,VWS V14.01,2013-01-20 05:59:00,
2013-01-20 01:04:00,61.2,58.6,30.15,North,355,0.0,6.0,91,0.00,,-RA,0.00,VWS V14.01,2013-01-20 06:04:00,
2013-01-20 01:09:00,61.1,58.5,30.15,NNW,336,4.0,6.0,91,0.00,,-RA,0.00,VWS V14.01,2013-01-20 06:09:00,
2013-01-20 01:14:00,61.0,58.7,30.15,NNW,336,2.0,4.0,92,0.00,,-RA,0.00,VWS V14.01,2013-01-20 06:14:00,
2013-01-20 01:19:00,60.9,58.6,30.15,NNE,23,4.0,6.0,92,0.00,,-RA,0.00,VWS V14.01,2013-01-20 06:19:00,
2013-01-20 01:24:00,60.8,58.5,30.16,NNE,14,4.0,4.0,92,0.00,,-RA,0.00,VWS V14.01,2013-01-20 06:24:00,
2013-01-20 01:30:00,60.8,58.5,30.15,NNW,340,2.0,4.0,92,0.00,,-RA,0.00,VWS V14.01,2013-01-20 06:30:00,
2013-01-20 01:35:00,60.7,58.4,30.14,NW,320,0.0,2.0,92,0.00,,-RA,0.00,VWS V14.01,2013-01-20 06:35:00,
2013-01-20 01:40:00,60.7,58.7,30.14,North,7,4.0,4.0,93,0.01,,-RA,0.01,VWS V14.01,2013-01-20 06:40:00,
2013-01-20 01:45:00,60.7,58.7,30.15,North,355,6.0,6.0,93,0.01,,-RA,0.01,VWS V14.01,2013-01-20 06:45:00,
2013-01-20 01:50:00,60.6,58.9,30.15,NNW,345,0.0,0.0,94,0.01,,-RA,0.01,VWS V14.01,2013-01-20 06:50:00,
2013-01-20 01:55:00,60.5,58.8,30.14,NNE,16,2.0,6.0,94,0.01,,-RA,0.01,VWS V14.01,2013-01-20 06:55:00,
2013-01-20 02:00:00,60.5,58.8,30.15,NNW,345,0.0,0.0,94,0.01,,-RA,0.01,VWS V14.01,2013-01-20 07:00:00,
2013-01-20 02:05:00,60.4,58.7,30.14,NNW,345,0.0,0.0,94,0.01,,-RA,0.01,VWS V14.01,2013-01-20 07:05:00,
2013-01-20 02:10:00,60.4,58.7,30.14,NNW,345,0.0,0.0,94,0.01,,-RA,0.01,VWS V14.01,2013-01-20 07:10:00,
2013-01-20 02:15:00,60.3,58.9,30.14,NNW,345,0.0,2.0,95,0.01,,-RA,0.01,VWS V14.01,2013-01-20 07:15:00,
2013-01-20 02:20:00,60.3,58.9,30.14,NW,319,0.0,2.0,95,0.01,,-RA,0.01,VWS V14.01,2013-01-20 07:20:00,
2013-01-20 02:26:00,60.3,58.9,30.14,NNW,333,4.0,6.0,95,0.01,,-RA,0.01,VWS V14.01,2013-01-20 07:26:00,
2013-01-20 02:31:00,60.2,58.8,30.14,NNW,337,4.0,6.0,95,0.01,,-RA,0.01,VWS V14.01,2013-01-20 07:31:00,
2013-01-20 02:36:00,60.2,58.8,30.14,NNW,337,2.0,2.0,95,0.01,,-RA,0.01,VWS V14.01,2013-01-20 07:36:00,
2013-01-20 02:41:00,60.2,58.8,30.14,NNW,345,4.0,4.0,95,0.00,,-RA,0.01,VWS V14.01,2013-01-20 07:41:00,
2013-01-20 02:46:00,60.1,58.7,30.13,North,350,2.0,2.0,95,0.00,,-RA,0.01,VWS V14.01,2013-01-20 07:46:00,
2013-01-20 02:51:00,60.1,58.7,30.14,NNW,345,0.0,4.0,95,0.00,,-RA,0.01,VWS V14.01,2013-01-20 07:51:00,
2013-01-20 02:56:00,60.0,58.6,30.13,NNW,345,2.0,6.0,95,0.00,,-RA,0.01,VWS V14.01,2013-01-20 07:56:00,
2013-01-20 03:01:00,60.0,58.6,30.13,North,1,4.0,8.0,95,0.00,,BKN085,0.01,VWS V14.01,2013-01-20 08:01:00,
2013-01-20 03:07:00,60.0,58.6,30.13,North,3,0.0,8.0,95,0.00,,BKN085,0.01,VWS V14.01,2013-01-20 08:07:00,
2013-01-20 03:12:00,60.0,58.6,30.13,NNW,336,2.0,8.0,95,0.00,,BKN085,0.01,VWS V14.01,2013-01-20 08:12:00,
2013-01-20 03:17:00,59.9,58.5,30.13,NW,319,2.0,6.0,95,0.00,,BKN085,0.01,VWS V14.01,2013-01-20 08:17:00,
2013-01-20 03:22:00,59.9,58.5,30.13,North,359,0.0,6.0,95,0.00,,BKN085,0.01,VWS V14.01,2013-01-20 08:22:00,
2013-01-20 03:27:00,60.0,58.9,30.13,North,3,0.0,2.0,96,0.00,,BKN085,0.01,VWS V14.01,2013-01-20 08:27:00,
2013-01-20 03:32:00,60.0,58.6,30.13,North,3,0.0,0.0,95,0.00,,BKN085,0.01,VWS V14.01,2013-01-20 08:32:00,
2013-01-20 03:37:00,60.0,58.6,30.13,North,3,0.0,4.0,95,0.00,,BKN085,0.01,VWS V14.01,2013-01-20 08:37:00,
2013-01-20 03:42:00,60.1,59.0,30.13,North,355,0.0,2.0,96,0.00,,BKN085,0.01,VWS V14.01,2013-01-20 08:42:00,
2013-01-20 03:48:00,60.1,59.0,30.14,NNW,345,0.0,4.0,96,0.00,,BKN085,0.01,VWS V14.01,2013-01-20 08:48:00,
2013-01-20 03:53:00,60.1,58.7,30.13,NNW,345,0.0,0.0,95,0.00,,BKN085,0.01,VWS V14.01,2013-01-20 08:53:00,
2013-01-20 03:58:00,60.1,58.7,30.13,NNW,345,0.0,0.0,95,0.00,,BKN085,0.01,VWS V14.01,2013-01-20 08:58:00,
2013-01-20 04:03:00,60.1,58.7,30.13,NNW,345,2.0,2.0,95,0.00,,BKN080,0.01,VWS V14.01,2013-01-20 09:03:00,
2013-01-20 04:08:00,60.0,58.6,30.13,NNW,345,0.0,0.0,95,0.00,,BKN080,0.01,VWS V14.01,2013-01-20 09:08:00,
2013-01-20 04:13:00,60.0,58.6,30.12,NNW,345,0.0,0.0,95,0.00,,BKN080,0.01,VWS V14.01,2013-01-20 09:13:00,
2013-01-20 04:18:00,59.9,58.5,30.13,NNW,345,0.0,0.0,95,0.00,,BKN080,0.01,VWS V14.01,2013-01-20 09:18:00,
2013-01-20 04:23:00,59.8,58.4,30.13,NNW,345,0.0,0.0,95,0.00,,BKN080,0.01,VWS V14.01,2013-01-20 09:23:00,
2013-01-20 04:28:00,59.8,58.7,30.13,NNW,345,0.0,6.0,96,0.00,,BKN080,0.01,VWS V14.01,2013-01-20 09:28:00,
2013-01-20 04:34:00,59.7,58.6,30.13,NNW,334,4.0,6.0,96,0.00,,BKN080,0.01,VWS V14.01,2013-01-20 09:34:00,
2013-01-20 04:39:00,59.7,58.6,30.12,NNW,333,2.0,4.0,96,0.00,,BKN080,0.01,VWS V14.01,2013-01-20 09:39:00,
2013-01-20 04:44:00,59.7,58.6,30.12,NNW,333,0.0,4.0,96,0.00,,BKN080,0.01,VWS V14.01,2013-01-20 09:44:00,
2013-01-20 04:49:00,59.7,58.6,30.12,North,8,4.0,6.0,96,0.00,,BKN080,0.01,VWS V14.01,2013-01-20 09:49:00,
2013-01-20 04:54:00,59.6,58.5,30.12,NNE,20,2.0,8.0,96,0.00,,BKN080,0.01,VWS V14.01,2013-01-20 09:54:00,
2013-01-20 04:59:00,59.6,58.5,30.12,North,3,4.0,6.0,96,0.00,,BKN080,0.01,VWS V14.01,2013-01-20 09:59:00,
2013-01-20 05:04:00,59.6,58.8,30.13,NW,322,2.0,6.0,97,0.00,,BKN060,0.01,VWS V14.01,2013-01-20 10:04:00,
2013-01-20 05:09:00,59.7,58.8,30.13,NW,320,4.0,8.0,97,0.00,,BKN060,0.01,VWS V14.01,2013-01-20 10:09:00,
2013-01-20 05:14:00,59.7,58.8,30.13,NW,317,0.0,4.0,97,0.00,,BKN060,0.01,VWS V14.01,2013-01-20 10:14:00,
2013-01-20 05:19:00,59.7,58.8,30.13,NW,320,0.0,6.0,97,0.00,,BKN060,0.01,VWS V14.01,2013-01-20 10:19:00,
2013-01-20 05:24:00,59.8,59.0,30.13,NW,325,4.0,4.0,97,0.00,,BKN060,0.01,VWS V14.01,2013-01-20 10:24:00,
2013-01-20 05:30:00,59.8,59.0,30.13,West,276,0.0,6.0,97,0.00,,BKN060,0.01,VWS V14.01,2013-01-20 10:30:00,
2013-01-20 05:35:00,59.8,59.0,30.13,NNW,338,2.0,6.0,97,0.00,,BKN060,0.01,VWS V14.01,2013-01-20 10:35:00,
2013-01-20 05:40:00,59.7,58.8,30.13,NNW,338,2.0,2.0,97,0.00,,BKN060,0.01,VWS V14.01,2013-01-20 10:40:00,
2013-01-20 05:45:00,59.7,58.8,30.13,NNW,338,0.0,0.0,97,0.00,,BKN060,0.01,VWS V14.01,2013-01-20 10:45:00,
2013-01-20 05:50:00,59.7,58.8,30.13,NNW,332,0.0,0.0,97,0.00,,BKN060,0.01,VWS V14.01,2013-01-20 10:50:00,
2013-01-20 05:55:00,59.7,58.8,30.13,NW,322,0.0,4.0,97,0.00,,BKN060,0.01,VWS V14.01,2013-01-20 10:55:00,
2013-01-20 06:00:00,59.7,58.8,30.14,NNW,338,0.0,0.0,97,0.00,,BKN060,0.01,VWS V14.01,2013-01-20 11:00:00,
2013-01-20 06:05:00,59.8,59.0,30.14,NW,305,0.0,0.0,97,0.00,,OVC039,0.01,VWS V14.01,2013-01-20 11:05:00,
2013-01-20 06:10:00,59.8,59.0,30.14,NW,318,2.0,4.0,97,0.00,,OVC039,0.01,VWS V14.01,2013-01-20 11:10:00,
2013-01-20 06:15:00,59.8,59.0,30.14,NNW,331,0.0,4.0,97,0.00,,OVC039,0.01,VWS V14.01,2013-01-20 11:15:00,
2013-01-20 06:20:00,59.7,58.8,30.14,NW,309,0.0,0.0,97,0.00,,OVC039,0.01,VWS V14.01,2013-01-20 11:20:00,
2013-01-20 06:25:00,59.6,58.8,30.14,NNW,331,0.0,2.0,97,0.00,,OVC039,0.01,VWS V14.01,2013-01-20 11:25:00,
2013-01-20 06:31:00,59.6,58.8,30.14,NNW,332,0.0,2.0,97,0.00,,OVC039,0.01,VWS V14.01,2013-01-20 11:31:00,
2013-01-20 06:36:00,59.5,58.7,30.14,NNW,345,0.0,0.0,97,0.00,,OVC039,0.01,VWS V14.01,2013-01-20 11:36:00,
2013-01-20 06:41:00,59.4,58.5,30.14,North,359,2.0,4.0,97,0.00,,OVC039,0.01,VWS V14.01,2013-01-20 11:41:00,
2013-01-20 06:46:00,59.3,58.5,30.14,NNW,331,4.0,4.0,97,0.00,,OVC039,0.01,VWS V14.01,2013-01-20 11:46:00,
2013-01-20 06:51:00,59.3,58.5,30.14,NE,34,4.0,6.0,97,0.00,,OVC039,0.01,VWS V14.01,2013-01-20 11:51:00,
2013-01-20 06:56:00,59.3,58.5,30.15,North,7,4.0,8.0,97,0.00,,OVC039,0.01,VWS V14.01,2013-01-20 11:56:00,
2013-01-20 07:01:00,59.4,58.5,30.15,North,10,0.0,8.0,97,0.00,,OVC039,0.01,VWS V14.01,2013-01-20 12:01:00,
2013-01-20 07:07:00,59.4,58.5,30.16,North,350,2.0,6.0,97,0.00,,OVC039,0.01,VWS V14.01,2013-01-20 12:07:00,
2013-01-20 07:12:00,59.4,58.5,30.16,NNW,345,6.0,6.0,97,0.00,,OVC039,0.01,VWS V14.01,2013-01-20 12:12:00,
2013-01-20 07:17:00,59.4,58.5,30.16,NW,323,2.0,6.0,97,0.00,,OVC039,0.01,VWS V14.01,2013-01-20 12:17:00,
2013-01-20 07:22:00,59.4,58.5,30.16,NNE,14,2.0,8.0,97,0.00,,OVC039,0.01,VWS V14.01,2013-01-20 12:22:00,
2013-01-20 07:27:00,59.4,58.5,30.16,NNW,341,0.0,4.0,97,0.00,,OVC039,0.01,VWS V14.01,2013-01-20 12:27:00,
2013-01-20 07:32:00,59.4,58.5,30.16,NNW,330,0.0,4.0,97,0.00,,OVC039,0.01,VWS V14.01,2013-01-20 12:32:00,
2013-01-20 07:37:00,59.5,58.7,30.16,NW,323,8.0,8.0,97,0.00,,OVC039,0.01,VWS V14.01,2013-01-20 12:37:00,
2013-01-20 07:42:00,59.6,58.8,30.16,NNW,334,4.0,4.0,97,0.00,,OVC039,0.01,VWS V14.01,2013-01-20 12:42:00,
2013-01-20 07:47:00,59.6,58.8,30.16,NNW,345,0.0,8.0,97,0.00,,OVC039,0.01,VWS V14.01,2013-01-20 12:47:00,
2013-01-20 07:52:00,59.8,59.0,30.16,NNW,340,4.0,8.0,97,0.00,,OVC039,0.01,VWS V14.01,2013-01-20 12:52:00,
2013-01-20 07:57:00,59.8,59.0,30.17,NNE,16,0.0,2.0,97,0.00,,OVC039,0.01,VWS V14.01,2013-01-20 12:57:00,
2013-01-20 08:02:00,60.0,59.2,30.17,NW,321,2.0,8.0,97,0.00,,OVC048,0.01,VWS V14.01,2013-01-20 13:02:00,
2013-01-20 08:07:00,60.1,59.2,30.17,NNW,333,6.0,6.0,97,0.00,,OVC048,0.01,VWS V14.01,2013-01-20 13:07:00,
2013-01-20 08:12:00,60.2,59.3,30.17,NNW,341,2.0,4.0,97,0.00,,OVC048,0.01,VWS V14.01,2013-01-20 13:12:00,
2013-01-20 08:17:00,60.3,59.5,30.17,North,350,6.0,8.0,97,0.00,,OVC005,0.01,VWS V14.01,2013-01-20 13:17:00,
2013-01-20 08:22:00,60.4,59.5,30.17,NNW,336,4.0,6.0,97,0.00,,OVC005,0.01,VWS V14.01,2013-01-20 13:22:00,
2013-01-20 08:27:00,60.5,59.7,30.17,North,355,0.0,6.0,97,0.00,,OVC005,0.01,VWS V14.01,2013-01-20 13:27:00,
2013-01-20 08:32:00,60.6,59.8,30.17,NNE,14,2.0,6.0,97,0.00,,OVC005,0.01,VWS V14.01,2013-01-20 13:32:00,
2013-01-20 08:38:00,60.7,59.8,30.17,North,355,2.0,6.0,97,0.00,,OVC005,0.01,VWS V14.01,2013-01-20 13:38:00,
2013-01-20 08:43:00,60.9,59.8,30.17,North,350,2.0,2.0,96,0.00,,OVC005,0.01,VWS V14.01,2013-01-20 13:43:00,
2013-01-20 08:48:00,61.0,59.9,30.17,NNE,28,6.0,6.0,96,0.00,,OVC005,0.01,VWS V14.01,2013-01-20 13:48:00,
2013-01-20 08:53:00,61.2,60.0,30.17,NNE,24,4.0,4.0,96,0.00,,OVC005,0.01,VWS V14.01,2013-01-20 13:53:00,
2013-01-20 08:58:00,61.3,60.2,30.17,NNW,341,2.0,4.0,96,0.00,,OVC005,0.01,VWS V14.01,2013-01-20 13:58:00,
2013-01-20 09:03:00,61.5,60.1,30.18,North,10,2.0,8.0,95,0.00,,OVC005,0.01,VWS V14.01,2013-01-20 14:03:00,
2013-01-20 09:08:00,61.6,60.2,30.18,North,350,0.0,6.0,95,0.00,,OVC005,0.01,VWS V14.01,2013-01-20 14:08:00,
2013-01-20 09:13:00,61.7,60.3,30.18,NW,313,6.0,8.0,95,0.00,,OVC005,0.01,VWS V14.01,2013-01-20 14:13:00,
2013-01-20 09:19:00,61.9,60.2,30.18,NNW,328,0.0,8.0,94,0.00,,OVC005,0.01,VWS V14.01,2013-01-20 14:19:00,
2013-01-20 09:24:00,62.0,60.3,30.18,NNW,345,4.0,10.0,94,0.00,,OVC005,0.01,VWS V14.01,2013-01-20 14:24:00,
2013-01-20 09:29:00,62.1,60.4,30.18,West,265,4.0,10.0,94,0.00,,OVC005,0.01,VWS V14.01,2013-01-20 14:29:00,
2013-01-20 09:34:00,62.2,60.5,30.19,NNW,345,4.0,8.0,94,0.00,,OVC040,0.01,VWS V14.01,2013-01-20 14:34:00,
2013-01-20 09:39:00,62.2,60.5,30.19,NNE,28,4.0,12.0,94,0.00,,OVC040,0.01,VWS V14.01,2013-01-20 14:39:00,
2013-01-20 09:44:00,62.1,60.1,30.19,NNE,12,0.0,6.0,93,0.00,,OVC040,0.01,VWS V14.01,2013-01-20 14:44:00,
2013-01-20 09:49:00,62.2,60.2,30.19,NNW,338,6.0,8.0,93,0.00,,OVC040,0.01,VWS V14.01,2013-01-20 14:49:00,
2013-01-20 09:54:00,62.2,60.2,30.19,NNW,345,2.0,8.0,93,0.00,,OVC040,0.01,VWS V14.01,2013-01-20 14:54:00,
2013-01-20 09:59:00,62.2,60.2,30.19,NNE,16,0.0,8.0,93,0.00,,OVC040,0.01,VWS V14.01,2013-01-20 14:59:00,
2013-01-20 10:04:00,62.2,60.2,30.19,North,1,6.0,10.0,93,0.00,,BKN200,0.01,VWS V14.01,2013-01-20 15:04:00,
2013-01-20 10:10:00,62.1,59.8,30.19,NW,321,4.0,10.0,92,0.00,,BKN200,0.01,VWS V14.01,2013-01-20 15:10:00,
2013-01-20 10:15:00,62.2,60.2,30.19,NNW,336,6.0,8.0,93,0.00,,BKN200,0.01,VWS V14.01,2013-01-20 15:15:00,
2013-01-20 10:20:00,62.4,60.3,30.19,NNW,341,0.0,4.0,93,0.00,,BKN200,0.01,VWS V14.01,2013-01-20 15:20:00,
2013-01-20 10:25:00,62.7,60.7,30.19,NNW,336,8.0,14.0,93,0.00,,BKN200,0.01,VWS V14.01,2013-01-20 15:25:00,
2013-01-20 10:30:00,63.1,60.7,30.19,North,6,4.0,8.0,92,0.00,,BKN200,0.01,VWS V14.01,2013-01-20 15:30:00,
2013-01-20 10:35:00,63.4,61.0,30.19,NNW,338,6.0,6.0,92,0.00,,OVC046,0.01,VWS V14.01,2013-01-20 15:35:00,
2013-01-20 10:40:00,63.7,61.3,30.19,NNE,20,2.0,8.0,92,0.00,,OVC046,0.01,VWS V14.01,2013-01-20 15:40:00,
2013-01-20 10:45:00,63.8,61.1,30.19,NE,36,4.0,8.0,91,0.00,,OVC046,0.01,VWS V14.01,2013-01-20 15:45:00,
2013-01-20 10:50:00,63.8,61.1,30.19,NNE,18,4.0,6.0,91,0.00,,OVC046,0.01,VWS V14.01,2013-01-20 15:50:00,
2013-01-20 10:55:00,63.8,61.1,30.19,NW,326,2.0,4.0,91,0.00,,OVC046,0.01,VWS V14.01,2013-01-20 15:55:00,
2013-01-20 11:01:00,63.8,61.1,30.19,North,350,4.0,6.0,91,0.00,,OVC048,0.01,VWS V14.01,2013-01-20 16:01:00,
2013-01-20 11:06:00,63.9,61.2,30.18,North,3,4.0,6.0,91,0.00,,OVC048,0.01,VWS V14.01,2013-01-20 16:06:00,
2013-01-20 11:11:00,64.3,61.9,30.18,NNE,12,12.0,12.0,92,0.00,,OVC048,0.01,VWS V14.01,2013-01-20 16:11:00,
2013-01-20 11:16:00,64.9,61.9,30.17,NNW,337,8.0,12.0,90,0.00,,OVC048,0.01,VWS V14.01,2013-01-20 16:16:00,
2013-01-20 11:21:00,65.2,62.5,30.17,NNE,20,6.0,10.0,91,0.00,,OVC048,0.01,VWS V14.01,2013-01-20 16:21:00,
2013-01-20 11:26:00,65.7,62.4,30.17,NW,320,4.0,16.0,89,0.00,,OVC048,0.01,VWS V14.01,2013-01-20 16:26:00,
2013-01-20 11:31:00,66.0,62.3,30.17,NW,316,10.0,12.0,88,0.00,,OVC048,0.01,VWS V14.01,2013-01-20 16:31:00,
2013-01-20 11:36:00,66.2,62.5,30.17,NNW,337,2.0,10.0,88,0.00,,OVC048,0.01,VWS V14.01,2013-01-20 16:36:00,
2013-01-20 11:42:00,66.7,63.0,30.17,North,1,8.0,14.0,88,0.00,,OVC048,0.01,VWS V14.01,2013-01-20 16:42:00,
2013-01-20 11:47:00,67.2,62.9,30.16,NNE,14,6.0,10.0,86,0.00,,OVC048,0.01,VWS V14.01,2013-01-20 16:47:00,
2013-01-20 11:52:00,67.6,62.9,30.16,East,81,0.0,10.0,85,0.00,,OVC048,0.01,VWS V14.01,2013-01-20 16:52:00,
2013-01-20 11:57:00,67.8,63.1,30.16,North,3,6.0,10.0,85,0.00,,OVC048,0.01,VWS V14.01,2013-01-20 16:57:00,
2013-01-20 12:02:00,68.0,63.3,30.15,NW,321,2.0,10.0,85,0.00,,OVC080,0.01,VWS V14.01,2013-01-20 17:02:00,
2013-01-20 12:07:00,68.5,63.5,30.15,North,9,2.0,12.0,84,0.00,,OVC080,0.01,VWS V14.01,2013-01-20 17:07:00,
2013-01-20 12:12:00,68.8,63.8,30.15,North,1,6.0,12.0,84,0.00,,OVC080,0.01,VWS V14.01,2013-01-20 17:12:00,
2013-01-20 12:17:00,69.4,64.0,30.15,North,350,0.0,10.0,83,0.00,,OVC080,0.01,VWS V14.01,2013-01-20 17:17:00,
2013-01-20 12:22:00,70.1,64.4,30.14,NE,39,0.0,14.0,82,0.00,,OVC080,0.01,VWS V14.01,2013-01-20 17:22:00,
2013-01-20 12:28:00,70.6,63.8,30.14,ENE,68,2.0,10.0,79,0.00,,OVC080,0.01,VWS V14.01,2013-01-20 17:28:00,
2013-01-20 12:33:00,70.7,63.9,30.14,NNW,332,6.0,8.0,79,0.00,,OVC080,0.01,VWS V14.01,2013-01-20 17:33:00,
2013-01-20 12:38:00,70.7,63.9,30.14,NNW,338,4.0,10.0,79,0.00,,OVC080,0.01,VWS V14.01,2013-01-20 17:38:00,
2013-01-20 12:43:00,70.7,63.9,30.13,North,355,0.0,6.0,79,0.00,,OVC080,0.01,VWS V14.01,2013-01-20 17:43:00,
2013-01-20 12:48:00,71.2,64.0,30.12,NE,55,2.0,4.0,78,0.00,,OVC080,0.01,VWS V14.01,2013-01-20 17:48:00,
2013-01-20 12:53:00,71.7,63.7,30.12,NNW,345,2.0,10.0,76,0.00,,OVC080,0.01,VWS V14.01,2013-01-20 17:53:00,
2013-01-20 12:58:00,72.0,63.7,30.11,NW,313,12.0,12.0,75,0.00,,OVC080,0.01,VWS V14.01,2013-01-20 17:58:00,
2013-01-20 13:04:00,71.8,63.8,30.11,NNE,32,8.0,12.0,76,0.00,,OVC017,0.01,VWS V14.01,2013-01-20 18:04:00,
2013-01-20 13:09:00,71.7,63.7,30.11,NW,325,6.0,8.0,76,0.00,,OVC017,0.01,VWS V14.01,2013-01-20 18:09:00,
2013-01-20 13:14:00,71.9,63.9,30.10,NNW,338,2.0,10.0,76,0.00,,OVC017,0.01,VWS V14.01,2013-01-20 18:14:00,
2013-01-20 13:19:00,72.4,64.0,30.10,NNW,327,12.0,14.0,75,0.00,,OVC017,0.01,VWS V14.01,2013-01-20 18:19:00,
2013-01-20 13:24:00,73.5,64.3,30.10,NW,318,2.0,20.0,73,0.00,,OVC017,0.01,VWS V14.01,2013-01-20 18:24:00,
2013-01-20 13:29:00,74.3,64.3,30.09,East,79,6.0,8.0,71,0.00,,OVC017,0.01,VWS V14.01,2013-01-20 18:29:00,
2013-01-20 13:34:00,74.5,64.5,30.09,NE,48,4.0,12.0,71,0.00,,BKN080,0.01,VWS V14.01,2013-01-20 18:34:00,
2013-01-20 13:39:00,74.3,63.9,30.09,East,95,2.0,12.0,70,0.00,,BKN080,0.01,VWS V14.01,2013-01-20 18:39:00,
2013-01-20 13:44:00,73.9,63.5,30.09,NNW,332,8.0,8.0,70,0.00,,BKN080,0.01,VWS V14.01,2013-01-20 18:44:00,
2013-01-20 13:49:00,73.5,63.5,30.08,NNE,12,0.0,10.0,71,0.00,,BKN080,0.01,VWS V14.01,2013-01-20 18:49:00,
2013-01-20 13:54:00,73.0,62.7,30.08,North,359,4.0,8.0,70,0.00,,BKN080,0.01,VWS V14.01,2013-01-20 18:54:00,
2013-01-20 13:59:00,72.8,62.5,30.08,NNW,345,0.0,14.0,70,0.00,,BKN080,0.01,VWS V14.01,2013-01-20 18:59:00,
2013-01-20 14:04:00,73.0,63.5,30.08,North,359,0.0,6.0,72,0.00,,BKN080,0.01,VWS V14.01,2013-01-20 19:04:00,
2013-01-20 14:09:00,73.2,63.2,30.08,NNW,336,10.0,10.0,71,0.00,,BKN080,0.01,VWS V14.01,2013-01-20 19:09:00,
2013-01-20 14:14:00,73.5,62.7,30.08,NNW,330,2.0,10.0,69,0.00,,BKN080,0.01,VWS V14.01,2013-01-20 19:14:00,
2013-01-20 14:20:00,73.3,62.9,30.08,NE,49,0.0,8.0,70,0.00,,BKN080,0.01,VWS V14.01,2013-01-20 19:20:00,
2013-01-20 14:25:00,73.0,62.7,30.08,North,5,0.0,6.0,70,0.00,,BKN080,0.01,VWS V14.01,2013-01-20 19:25:00,
2013-01-20 14:30:00,72.8,63.3,30.08,NNE,26,0.0,2.0,72,0.00,,BKN080,0.01,VWS V14.01,2013-01-20 19:30:00,
2013-01-20 14:35:00,72.9,63.0,30.08,North,7,2.0,2.0,71,0.00,,BKN080,0.01,VWS V14.01,2013-01-20 19:35:00,
2013-01-20 14:40:00,72.9,63.0,30.07,NNE,12,0.0,0.0,71,0.00,,BKN080,0.01,VWS V14.01,2013-01-20 19:40:00,
2013-01-20 14:45:00,72.8,62.9,30.07,ENE,58,2.0,2.0,71,0.00,,BKN080,0.01,VWS V14.01,2013-01-20 19:45:00,
2013-01-20 14:50:00,72.6,63.1,30.07,NNE,27,0.0,4.0,72,0.00,,BKN080,0.01,VWS V14.01,2013-01-20 19:50:00,
2013-01-20 14:55:00,72.4,62.1,30.07,NNE,15,0.0,4.0,70,0.00,,BKN080,0.01,VWS V14.01,2013-01-20 19:55:00,
2013-01-20 15:00:00,72.4,62.1,30.07,North,8,2.0,4.0,70,0.00,,BKN080,0.01,VWS V14.01,2013-01-20 20:00:00,
2013-01-20 15:06:00,72.4,62.1,30.07,North,11,2.0,2.0,70,0.00,,BKN080,0.01,VWS V14.01,2013-01-20 20:06:00,
2013-01-20 15:11:00,72.5,62.2,30.07,NW,320,2.0,2.0,70,0.00,,BKN080,0.01,VWS V14.01,2013-01-20 20:11:00,
2013-01-20 15:16:00,72.4,61.7,30.07,NNE,16,8.0,8.0,69,0.00,,BKN080,0.01,VWS V14.01,2013-01-20 20:16:00,
2013-01-20 15:21:00,72.0,61.3,30.07,NW,320,8.0,8.0,69,0.00,,BKN080,0.01,VWS V14.01,2013-01-20 20:21:00,
2013-01-20 15:26:00,71.7,61.4,30.07,North,8,2.0,10.0,70,0.00,,BKN080,0.01,VWS V14.01,2013-01-20 20:26:00,
2013-01-20 15:31:00,71.2,60.9,30.07,NE,35,4.0,12.0,70,0.00,,BKN080,0.01,VWS V14.01,2013-01-20 20:31:00,
2013-01-20 15:36:00,70.9,61.0,30.07,NNE,26,2.0,2.0,71,0.00,,BKN080,0.01,VWS V14.01,2013-01-20 20:36:00,
2013-01-20 15:41:00,70.8,61.7,30.07,NNE,14,6.0,8.0,73,0.00,,BKN080,0.01,VWS V14.01,2013-01-20 20:41:00,
2013-01-20 15:47:00,70.6,60.8,30.07,North,359,2.0,14.0,71,0.00,,BKN080,0.01,VWS V14.01,2013-01-20 20:47:00,
2013-01-20 15:52:00,70.4,60.6,30.07,NE,36,0.0,14.0,71,0.00,,BKN080,0.01,VWS V14.01,2013-01-20 20:52:00,
2013-01-20 15:57:00,70.4,60.6,30.07,NNE,22,0.0,4.0,71,0.00,,BKN080,0.01,VWS V14.01,2013-01-20 20:57:00,
2013-01-20 16:02:00,70.5,60.7,30.08,North,355,2.0,6.0,71,0.00,,BKN080,0.01,VWS V14.01,2013-01-20 21:02:00,
2013-01-20 16:07:00,71.2,61.3,30.07,NNE,13,4.0,10.0,71,0.00,,BKN080,0.01,VWS V14.01,2013-01-20 21:07:00,
2013-01-20 16:12:00,71.7,61.0,30.07,NNE,25,0.0,4.0,69,0.00,,BKN080,0.01,VWS V14.01,2013-01-20 21:12:00,
2013-01-20 16:17:00,72.2,61.5,30.07,NNE,24,0.0,0.0,69,0.00,,BKN080,0.01,VWS V14.01,2013-01-20 21:17:00,
2013-01-20 16:22:00,72.5,60.9,30.07,NNW,345,8.0,10.0,67,0.00,,BKN080,0.01,VWS V14.01,2013-01-20 21:22:00,
2013-01-20 16:27:00,72.5,60.9,30.07,NE,44,4.0,6.0,67,0.00,,BKN080,0.01,VWS V14.01,2013-01-20 21:27:00,
2013-01-20 16:32:00,72.1,60.1,30.07,NE,36,2.0,6.0,66,0.00,,BKN080,0.01,VWS V14.01,2013-01-20 21:32:00,
2013-01-20 16:37:00,71.7,60.2,30.08,ENE,70,0.0,6.0,67,0.00,,BKN080,0.01,VWS V14.01,2013-01-20 21:37:00,
2013-01-20 16:42:00,71.1,60.0,30.08,NE,34,0.0,0.0,68,0.00,,BKN080,0.01,VWS V14.01,2013-01-20 21:42:00,
2013-01-20 16:48:00,70.4,59.8,30.08,ESE,105,0.0,2.0,69,0.00,,BKN080,0.01,VWS V14.01,2013-01-20 21:48:00,
2013-01-20 16:53:00,69.8,59.6,30.09,ESE,105,0.0,2.0,70,0.00,,BKN080,0.01,VWS V14.01,2013-01-20 21:53:00,
2013-01-20 16:58:00,69.1,59.3,30.09,ESE,103,0.0,2.0,71,0.00,,BKN080,0.01,VWS V14.01,2013-01-20 21:58:00,
2013-01-20 17:03:00,68.6,59.2,30.08,ESE,103,0.0,0.0,72,0.00,,BKN080,0.01,VWS V14.01,2013-01-20 22:03:00,
2013-01-20 17:08:00,68.2,59.6,30.08,North,1,0.0,4.0,74,0.00,,BKN080,0.01,VWS V14.01,2013-01-20 22:08:00,
2013-01-20 17:13:00,67.9,59.7,30.08,ENE,64,0.0,4.0,75,0.00,,BKN080,0.01,VWS V14.01,2013-01-20 22:13:00,
2013-01-20 17:18:00,67.8,59.6,30.08,ENE,64,0.0,0.0,75,0.00,,BKN080,0.01,VWS V14.01,2013-01-20 22:18:00,
2013-01-20 17:23:00,67.7,59.5,30.08,ENE,64,0.0,2.0,75,0.00,,BKN080,0.01,VWS V14.01,2013-01-20 22:23:00,
2013-01-20 17:28:00,67.7,59.1,30.08,NE,36,0.0,4.0,74,0.00,,BKN080,0.01,VWS V14.01,2013-01-20 22:28:00,
2013-01-20 17:33:00,67.5,58.9,30.08,North,359,0.0,6.0,74,0.00,,BKN080,0.01,VWS V14.01,2013-01-20 22:33:00,
2013-01-20 17:38:00,67.3,58.7,30.09,North,350,0.0,2.0,74,0.00,,BKN080,0.01,VWS V14.01,2013-01-20 22:38:00,
2013-01-20 17:44:00,67.0,58.8,30.09,NE,53,0.0,2.0,75,0.00,,BKN080,0.01,VWS V14.01,2013-01-20 22:44:00,
2013-01-20 17:49:00,66.7,58.5,30.09,ENE,65,0.0,4.0,75,0.00,,BKN080,0.01,VWS V14.01,2013-01-20 22:49:00,
2013-01-20 17:54:00,66.3,58.2,30.09,East,89,0.0,2.0,75,0.00,,BKN080,0.01,VWS V14.01,2013-01-20 22:54:00,
2013-01-20 17:59:00,66.1,58.0,30.09,ESE,113,0.0,4.0,75,0.00,,BKN080,0.01,VWS V14.01,2013-01-20 22:59:00,
2013-01-20 18:04:00,65.8,57.7,30.09,ESE,103,0.0,0.0,75,0.00,,BKN150,0.01,VWS V14.01,2013-01-20 23:04:00,
2013-01-20 18:09:00,65.7,57.9,30.09,ESE,103,0.0,2.0,76,0.00,,BKN150,0.01,VWS V14.01,2013-01-20 23:09:00,
2013-01-20 18:14:00,65.5,57.4,30.09,ESE,103,0.0,0.0,75,0.00,,BKN150,0.01,VWS V14.01,2013-01-20 23:14:00,
2013-01-20 18:19:00,65.3,57.2,30.09,East,86,0.0,2.0,75,0.00,,BKN150,0.01,VWS V14.01,2013-01-20 23:19:00,
2013-01-20 18:24:00,65.1,57.4,30.10,East,86,0.0,0.0,76,0.00,,BKN150,0.01,VWS V14.01,2013-01-20 23:24:00,
2013-01-20 18:29:00,64.9,57.2,30.09,East,86,0.0,0.0,76,0.00,,BKN150,0.01,VWS V14.01,2013-01-20 23:29:00,
2013-01-20 18:34:00,64.7,57.0,30.09,East,86,0.0,0.0,76,0.00,,BKN150,0.01,VWS V14.01,2013-01-20 23:34:00,
2013-01-20 18:39:00,64.4,57.0,30.10,East,86,0.0,0.0,77,0.00,,BKN150,0.01,VWS V14.01,2013-01-20 23:39:00,
2013-01-20 18:44:00,64.1,56.8,30.10,East,86,0.0,0.0,77,0.00,,BKN150,0.01,VWS V14.01,2013-01-20 23:44:00,
2013-01-20 18:49:00,63.9,56.6,30.10,East,86,0.0,0.0,77,0.00,,BKN150,0.01,VWS V14.01,2013-01-20 23:49:00,
2013-01-20 18:55:00,63.6,56.3,30.10,East,82,0.0,2.0,77,0.00,,BKN150,0.01,VWS V14.01,2013-01-20 23:55:00,
2013-01-20 19:00:00,63.4,56.1,30.10,East,82,0.0,2.0,77,0.00,,BKN150,0.01,VWS V14.01,2013-01-21 00:00:00,
2013-01-20 19:05:00,63.2,55.9,30.10,East,82,0.0,2.0,77,0.00,,SCT080,0.01,VWS V14.01,2013-01-21 00:05:00,
2013-01-20 19:10:00,63.1,55.8,30.10,NE,38,0.0,2.0,77,0.00,,SCT080,0.01,VWS V14.01,2013-01-21 00:10:00,
2013-01-20 19:15:00,62.9,55.6,30.10,NE,38,0.0,2.0,77,0.00,,SCT080,0.01,VWS V14.01,2013-01-21 00:15:00,
2013-01-20 19:20:00,62.6,55.7,30.10,NE,38,0.0,0.0,78,0.00,,SCT080,0.01,VWS V14.01,2013-01-21 00:20:00,
2013-01-20 19:25:00,62.4,55.5,30.10,NE,38,0.0,0.0,78,0.00,,SCT080,0.01,VWS V14.01,2013-01-21 00:25:00,
2013-01-20 19:30:00,62.2,55.3,30.10,NE,35,0.0,0.0,78,0.00,,SCT080,0.01,VWS V14.01,2013-01-21 00:30:00,
2013-01-20 19:35:00,61.9,55.3,30.09,NE,35,0.0,0.0,79,0.00,,SCT080,0.01,VWS V14.01,2013-01-21 00:35:00,
2013-01-20 19:40:00,61.7,55.1,30.10,NNE,26,0.0,0.0,79,0.00,,SCT080,0.01,VWS V14.01,2013-01-21 00:40:00,
2013-01-20 19:45:00,61.5,54.9,30.10,NNE,26,0.0,0.0,79,0.00,,SCT080,0.01,VWS V14.01,2013-01-21 00:45:00,
2013-01-20 19:50:00,61.4,54.8,30.10,NNE,24,0.0,2.0,79,0.00,,SCT080,0.01,VWS V14.01,2013-01-21 00:50:00,
2013-01-20 19:55:00,61.3,54.7,30.10,NNE,24,0.0,2.0,79,0.00,,SCT080,0.01,VWS V14.01,2013-01-21 00:55:00,
2013-01-20 20:01:00,61.1,54.5,30.10,NNE,24,0.0,0.0,79,0.00,,FEW150,0.01,VWS V14.01,2013-01-21 01:01:00,
2013-01-20 20:06:00,60.9,54.3,30.10,NNE,24,0.0,0.0,79,0.00,,FEW150,0.01,VWS V14.01,2013-01-21 01:06:00,
2013-01-20 20:11:00,60.7,54.2,30.10,NNE,24,0.0,0.0,79,0.00,,FEW150,0.01,VWS V14.01,2013-01-21 01:11:00,
2013-01-20 20:16:00,60.5,54.3,30.11,NNE,24,0.0,0.0,80,0.00,,FEW150,0.01,VWS V14.01,2013-01-21 01:16:00,
2013-01-20 20:21:00,60.2,54.0,30.10,NNE,24,0.0,2.0,80,0.00,,FEW150,0.01,VWS V14.01,2013-01-21 01:21:00,
2013-01-20 20:26:00,60.0,53.8,30.11,NNE,20,0.0,0.0,80,0.00,,FEW150,0.01,VWS V14.01,2013-01-21 01:26:00,
2013-01-20 20:31:00,60.0,54.2,30.11,NNE,20,0.0,0.0,81,0.00,,FEW150,0.01,VWS V14.01,2013-01-21 01:31:00,
2013-01-20 20:36:00,59.8,54.0,30.11,NNE,20,0.0,4.0,81,0.00,,FEW150,0.01,VWS V14.01,2013-01-21 01:36:00,
2013-01-20 20:41:00,59.7,53.9,30.11,NNE,20,0.0,0.0,81,0.00,,FEW150,0.01,VWS V14.01,2013-01-21 01:41:00,
2013-01-20 20:47:00,59.7,53.9,30.10,NNE,20,0.0,0.0,81,0.00,,FEW150,0.01,VWS V14.01,2013-01-21 01:47:00,
2013-01-20 20:52:00,59.5,54.0,30.11,NNE,20,0.0,0.0,82,0.00,,FEW150,0.01,VWS V14.01,2013-01-21 01:52:00,
2013-01-20 20:57:00,59.4,53.9,30.10,NNE,20,0.0,0.0,82,0.00,,FEW150,0.01,VWS V14.01,2013-01-21 01:57:00,
2013-01-20 21:02:00,59.2,53.7,30.10,NNE,20,0.0,0.0,82,0.00,,CLR,0.01,VWS V14.01,2013-01-21 02:02:00,
2013-01-20 21:07:00,59.0,53.5,30.10,NNE,20,0.0,0.0,82,0.00,,CLR,0.01,VWS V14.01,2013-01-21 02:07:00,
2013-01-20 21:12:00,58.8,53.7,30.10,NNE,20,0.0,0.0,83,0.00,,CLR,0.01,VWS V14.01,2013-01-21 02:12:00,
2013-01-20 21:17:00,58.7,53.6,30.11,NNE,20,0.0,0.0,83,0.00,,CLR,0.01,VWS V14.01,2013-01-21 02:17:00,
2013-01-20 21:22:00,58.7,53.6,30.11,NNE,20,0.0,0.0,83,0.00,,CLR,0.01,VWS V14.01,2013-01-21 02:22:00,
2013-01-20 21:27:00,58.6,53.5,30.11,NNE,20,0.0,0.0,83,0.00,,CLR,0.01,VWS V14.01,2013-01-21 02:27:00,
2013-01-20 21:33:00,58.4,53.6,30.11,NNE,20,0.0,0.0,84,0.00,,CLR,0.01,VWS V14.01,2013-01-21 02:33:00,
2013-01-20 21:38:00,58.2,53.7,30.11,NNE,20,0.0,0.0,85,0.00,,CLR,0.01,VWS V14.01,2013-01-21 02:38:00,
2013-01-20 21:43:00,58.1,53.6,30.12,NNE,20,0.0,0.0,85,0.00,,CLR,0.01,VWS V14.01,2013-01-21 02:43:00,
2013-01-20 21:48:00,57.9,53.7,30.12,NNE,20,0.0,0.0,86,0.00,,CLR,0.01,VWS V14.01,2013-01-21 02:48:00,
2013-01-20 21:53:00,57.8,53.7,30.12,NNE,20,0.0,0.0,86,0.00,,CLR,0.01,VWS V14.01,2013-01-21 02:53:00,
2013-01-20 21:58:00,57.8,53.7,30.12,NNE,20,0.0,0.0,86,0.00,,CLR,0.01,VWS V14.01,2013-01-21 02:58:00,
2013-01-20 22:03:00,57.9,53.7,30.11,NNE,20,0.0,0.0,86,0.00,,BKN150,0.01,VWS V14.01,2013-01-21 03:03:00,
2013-01-20 22:08:00,57.9,54.1,30.11,NNE,20,0.0,0.0,87,0.00,,BKN150,0.01,VWS V14.01,2013-01-21 03:08:00,
2013-01-20 22:13:00,58.0,54.2,30.11,NNE,20,0.0,0.0,87,0.00,,BKN150,0.01,VWS V14.01,2013-01-21 03:13:00,
2013-01-20 22:18:00,58.1,54.3,30.12,NNE,20,0.0,0.0,87,0.00,,BKN150,0.01,VWS V14.01,2013-01-21 03:18:00,
2013-01-20 22:23:00,58.2,54.4,30.11,NNE,20,0.0,0.0,87,0.00,,BKN150,0.01,VWS V14.01,2013-01-21 03:23:00,
2013-01-20 22:29:00,58.2,54.4,30.12,NNE,20,0.0,0.0,87,0.00,,BKN150,0.01,VWS V14.01,2013-01-21 03:29:00,
2013-01-20 22:34:00,58.3,54.5,30.12,NNE,20,0.0,0.0,87,0.00,,BKN150,0.01,VWS V14.01,2013-01-21 03:34:00,
2013-01-20 22:39:00,58.3,54.5,30.12,NNE,20,0.0,0.0,87,0.00,,BKN150,0.01,VWS V14.01,2013-01-21 03:39:00,
2013-01-20 22:44:00,58.5,54.7,30.11,NNE,20,0.0,0.0,87,0.00,,BKN150,0.01,VWS V14.01,2013-01-21 03:44:00,
2013-01-20 22:49:00,58.6,54.8,30.11,NNE,20,0.0,0.0,87,0.00,,BKN150,0.01,VWS V14.01,2013-01-21 03:49:00,
2013-01-20 22:54:00,58.6,54.8,30.11,NNE,20,0.0,0.0,87,0.00,,BKN150,0.01,VWS V14.01,2013-01-21 03:54:00,
2013-01-20 22:59:00,58.6,54.8,30.11,NNE,20,0.0,0.0,87,0.00,,BKN150,0.01,VWS V14.01,2013-01-21 03:59:00,
2013-01-20 23:04:00,58.6,54.8,30.11,NNE,20,0.0,0.0,87,0.00,,BKN150,0.01,VWS V14.01,2013-01-21 04:04:00,
2013-01-20 23:09:00,58.6,54.8,30.11,NNE,20,0.0,0.0,87,0.00,,BKN150,0.01,VWS V14.01,2013-01-21 04:09:00,
2013-01-20 23:14:00,58.5,54.7,30.10,NNE,20,0.0,0.0,87,0.00,,BKN150,0.01,VWS V14.01,2013-01-21 04:14:00,
2013-01-20 23:19:00,58.4,54.5,30.11,NNE,20,0.0,0.0,87,0.00,,BKN150,0.01,VWS V14.01,2013-01-21 04:19:00,
2013-01-20 23:24:00,58.4,54.5,30.11,NNE,20,0.0,0.0,87,0.00,,BKN150,0.01,VWS V14.01,2013-01-21 04:24:00,
2013-01-20 23:29:00,58.5,54.7,30.11,NNE,20,0.0,0.0,87,0.00,,BKN150,0.01,VWS V14.01,2013-01-21 04:29:00,
2013-01-20 23:34:00,58.5,54.7,30.11,NNE,20,0.0,0.0,87,0.00,,BKN150,0.01,VWS V14.01,2013-01-21 04:34:00,
2013-01-20 23:40:00,58.6,55.1,30.11,NNE,20,0.0,0.0,88,0.00,,BKN150,0.01,VWS V14.01,2013-01-21 04:40:00,
2013-01-20 23:45:00,58.6,55.1,30.11,NNE,20,0.0,0.0,88,0.00,,BKN150,0.01,VWS V14.01,2013-01-21 04:45:00,
2013-01-20 23:50:00,58.6,55.1,30.10,NNE,20,0.0,0.0,88,0.00,,BKN150,0.01,VWS V14.01,2013-01-21 04:50:00,
2013-01-20 23:55:00,58.7,55.2,30.10,NNE,20,0.0,0.0,88,0.00,,BKN150,0.01,VWS V14.01,2013-01-21 04:55:00,